sensor_id;sensor_type;location;lat;lon;timestamp;temperature;humidity
27795;DHT22;15176;50.844;4.412;2022-11-14T00:00:31;13.00;99.90
27795;DHT22;15176;50.844;4.412;2022-11-14T00:03:01;13.00;99.90
27795;DHT22;15176;50.844;4.412;2022-11-14T00:05:27;13.00;99.90
27795;DHT22;15176;50.844;4.412;2022-11-14T00:07:53;13.00;99.90
27795;DHT22;15176;50.844;4.412;2022-11-14T00:10:19;13.00;99.90
27795;DHT22;15176;50.844;4.412;2022-11-14T00:12:45;13.30;99.90
27795;DHT22;15176;50.844;4.412;2022-11-14T00:15:11;13.50;99.90
27795;DHT22;15176;50.844;4.412;2022-11-14T00:17:37;13.50;99.90
27795;DHT22;15176;50.844;4.412;2022-11-14T00:20:04;13.90;99.90
27795;DHT22;15176;50.844;4.412;2022-11-14T00:22:32;13.90;99.90
27795;DHT22;15176;50.844;4.412;2022-11-14T00:24:58;14.00;99.90
27795;DHT22;15176;50.844;4.412;2022-11-14T00:27:23;14.20;99.90
27795;DHT22;15176;50.844;4.412;2022-11-14T00:29:49;13.80;99.90
27795;DHT22;15176;50.844;4.412;2022-11-14T00:32:15;14.10;99.90
27795;DHT22;15176;50.844;4.412;2022-11-14T00:34:40;14.20;99.90
27795;DHT22;15176;50.844;4.412;2022-11-14T00:37:06;13.80;99.90
27795;DHT22;15176;50.844;4.412;2022-11-14T00:39:32;13.80;99.90
27795;DHT22;15176;50.844;4.412;2022-11-14T00:41:57;13.40;99.90
27795;DHT22;15176;50.844;4.412;2022-11-14T00:44:23;12.90;99.90
27795;DHT22;15176;50.844;4.412;2022-11-14T00:46:49;12.80;99.90
27795;DHT22;15176;50.844;4.412;2022-11-14T00:49:15;13.10;99.90
27795;DHT22;15176;50.844;4.412;2022-11-14T00:51:40;13.40;99.90
27795;DHT22;15176;50.844;4.412;2022-11-14T00:54:06;13.40;99.90
27795;DHT22;15176;50.844;4.412;2022-11-14T00:56:32;13.50;99.90
27795;DHT22;15176;50.844;4.412;2022-11-14T00:58:57;13.50;99.90
27795;DHT22;15176;50.844;4.412;2022-11-14T01:01:23;13.50;99.90
27795;DHT22;15176;50.844;4.412;2022-11-14T01:03:50;13.50;99.90
27795;DHT22;15176;50.844;4.412;2022-11-14T01:06:17;12.90;99.90
27795;DHT22;15176;50.844;4.412;2022-11-14T01:08:43;12.60;99.90
27795;DHT22;15176;50.844;4.412;2022-11-14T01:11:11;12.50;99.90
27795;DHT22;15176;50.844;4.412;2022-11-14T01:13:37;12.60;99.90
27795;DHT22;15176;50.844;4.412;2022-11-14T01:16:03;12.40;99.90
27795;DHT22;15176;50.844;4.412;2022-11-14T01:18:28;12.80;99.90
27795;DHT22;15176;50.844;4.412;2022-11-14T01:20:54;13.10;99.90
27795;DHT22;15176;50.844;4.412;2022-11-14T01:23:20;13.40;99.90
27795;DHT22;15176;50.844;4.412;2022-11-14T01:25:46;13.40;99.90
27795;DHT22;15176;50.844;4.412;2022-11-14T01:28:14;13.30;99.90
27795;DHT22;15176;50.844;4.412;2022-11-14T01:30:40;13.00;99.90
27795;DHT22;15176;50.844;4.412;2022-11-14T01:33:06;13.10;99.90
27795;DHT22;15176;50.844;4.412;2022-11-14T01:35:33;13.50;99.90
27795;DHT22;15176;50.844;4.412;2022-11-14T01:37:59;13.50;99.90
27795;DHT22;15176;50.844;4.412;2022-11-14T01:40:25;13.60;99.90
27795;DHT22;15176;50.844;4.412;2022-11-14T01:45:49;13.70;99.90
27795;DHT22;15176;50.844;4.412;2022-11-14T01:48:19;13.60;99.90
27795;DHT22;15176;50.844;4.412;2022-11-14T01:50:49;13.80;99.90
27795;DHT22;15176;50.844;4.412;2022-11-14T01:53:16;13.70;99.90
27795;DHT22;15176;50.844;4.412;2022-11-14T01:55:42;13.70;99.90
27795;DHT22;15176;50.844;4.412;2022-11-14T01:58:08;13.70;99.90
27795;DHT22;15176;50.844;4.412;2022-11-14T02:00:34;13.50;99.90
27795;DHT22;15176;50.844;4.412;2022-11-14T02:03:00;13.50;99.90
27795;DHT22;15176;50.844;4.412;2022-11-14T02:05:26;13.50;99.90
27795;DHT22;15176;50.844;4.412;2022-11-14T02:07:51;13.40;99.90
27795;DHT22;15176;50.844;4.412;2022-11-14T02:10:19;13.30;99.90
27795;DHT22;15176;50.844;4.412;2022-11-14T02:12:45;13.30;99.90
27795;DHT22;15176;50.844;4.412;2022-11-14T02:15:12;13.30;99.90
27795;DHT22;15176;50.844;4.412;2022-11-14T02:17:39;13.30;99.90
27795;DHT22;15176;50.844;4.412;2022-11-14T02:22:35;13.20;99.90
27795;DHT22;15176;50.844;4.412;2022-11-14T02:25:01;13.10;99.90
27795;DHT22;15176;50.844;4.412;2022-11-14T02:27:27;13.00;99.90
27795;DHT22;15176;50.844;4.412;2022-11-14T02:29:53;13.00;99.90
27795;DHT22;15176;50.844;4.412;2022-11-14T02:32:19;12.90;99.90
27795;DHT22;15176;50.844;4.412;2022-11-14T02:34:45;13.00;99.90
27795;DHT22;15176;50.844;4.412;2022-11-14T02:37:10;12.90;99.90
27795;DHT22;15176;50.844;4.412;2022-11-14T02:39:37;12.90;99.90
27795;DHT22;15176;50.844;4.412;2022-11-14T02:42:03;13.00;99.90
27795;DHT22;15176;50.844;4.412;2022-11-14T02:44:29;13.10;99.90
27795;DHT22;15176;50.844;4.412;2022-11-14T02:46:55;13.00;99.90
27795;DHT22;15176;50.844;4.412;2022-11-14T02:49:21;13.00;99.90
27795;DHT22;15176;50.844;4.412;2022-11-14T02:51:46;12.90;99.90
27795;DHT22;15176;50.844;4.412;2022-11-14T02:54:12;13.00;99.90
27795;DHT22;15176;50.844;4.412;2022-11-14T02:56:37;13.00;99.90
27795;DHT22;15176;50.844;4.412;2022-11-14T02:59:03;13.00;99.90
27795;DHT22;15176;50.844;4.412;2022-11-14T03:01:29;12.90;99.90
27795;DHT22;15176;50.844;4.412;2022-11-14T03:03:55;12.90;99.90
27795;DHT22;15176;50.844;4.412;2022-11-14T03:06:20;12.80;99.90
27795;DHT22;15176;50.844;4.412;2022-11-14T03:08:46;12.80;99.90
27795;DHT22;15176;50.844;4.412;2022-11-14T03:11:12;12.80;99.90
27795;DHT22;15176;50.844;4.412;2022-11-14T03:13:37;12.90;99.90
27795;DHT22;15176;50.844;4.412;2022-11-14T03:16:08;12.90;99.90
27795;DHT22;15176;50.844;4.412;2022-11-14T03:18:35;12.70;99.90
27795;DHT22;15176;50.844;4.412;2022-11-14T03:21:11;12.80;99.90
27795;DHT22;15176;50.844;4.412;2022-11-14T03:23:37;12.70;99.90
27795;DHT22;15176;50.844;4.412;2022-11-14T03:26:05;12.60;99.90
27795;DHT22;15176;50.844;4.412;2022-11-14T03:28:31;12.50;99.90
27795;DHT22;15176;50.844;4.412;2022-11-14T03:30:57;12.40;99.90
27795;DHT22;15176;50.844;4.412;2022-11-14T03:33:23;12.60;99.90
27795;DHT22;15176;50.844;4.412;2022-11-14T03:35:49;12.80;99.90
27795;DHT22;15176;50.844;4.412;2022-11-14T03:38:16;12.90;99.90
27795;DHT22;15176;50.844;4.412;2022-11-14T03:40:42;12.90;99.90
27795;DHT22;15176;50.844;4.412;2022-11-14T03:43:10;13.00;99.90
27795;DHT22;15176;50.844;4.412;2022-11-14T03:45:36;12.90;99.90
27795;DHT22;15176;50.844;4.412;2022-11-14T03:48:06;12.80;99.90
27795;DHT22;15176;50.844;4.412;2022-11-14T03:50:31;12.80;99.90
27795;DHT22;15176;50.844;4.412;2022-11-14T03:52:57;12.80;99.90
27795;DHT22;15176;50.844;4.412;2022-11-14T03:55:23;12.60;99.90
27795;DHT22;15176;50.844;4.412;2022-11-14T03:57:49;12.30;99.90
27795;DHT22;15176;50.844;4.412;2022-11-14T04:00:15;12.10;99.90
27795;DHT22;15176;50.844;4.412;2022-11-14T04:02:41;12.00;99.90
27795;DHT22;15176;50.844;4.412;2022-11-14T04:05:07;12.10;99.90
27795;DHT22;15176;50.844;4.412;2022-11-14T04:07:34;12.10;99.90
27795;DHT22;15176;50.844;4.412;2022-11-14T04:10:00;12.20;99.90
27795;DHT22;15176;50.844;4.412;2022-11-14T04:12:26;12.20;99.90
27795;DHT22;15176;50.844;4.412;2022-11-14T04:14:51;12.30;99.90
27795;DHT22;15176;50.844;4.412;2022-11-14T04:17:17;12.60;99.90
27795;DHT22;15176;50.844;4.412;2022-11-14T04:19:43;12.80;99.90
27795;DHT22;15176;50.844;4.412;2022-11-14T04:22:09;12.60;99.90
27795;DHT22;15176;50.844;4.412;2022-11-14T04:24:34;12.70;99.90
27795;DHT22;15176;50.844;4.412;2022-11-14T04:27:00;13.00;99.90
27795;DHT22;15176;50.844;4.412;2022-11-14T04:29:26;13.00;99.90
27795;DHT22;15176;50.844;4.412;2022-11-14T04:31:51;13.00;99.90
27795;DHT22;15176;50.844;4.412;2022-11-14T04:34:17;12.90;99.90
27795;DHT22;15176;50.844;4.412;2022-11-14T04:36:43;12.80;99.90
27795;DHT22;15176;50.844;4.412;2022-11-14T04:39:09;12.80;99.90
27795;DHT22;15176;50.844;4.412;2022-11-14T04:41:35;13.00;99.90
27795;DHT22;15176;50.844;4.412;2022-11-14T04:44:00;12.80;99.90
27795;DHT22;15176;50.844;4.412;2022-11-14T04:46:26;12.30;99.90
27795;DHT22;15176;50.844;4.412;2022-11-14T04:48:52;12.30;99.90
27795;DHT22;15176;50.844;4.412;2022-11-14T04:51:17;12.40;99.90
27795;DHT22;15176;50.844;4.412;2022-11-14T04:53:43;12.50;99.90
27795;DHT22;15176;50.844;4.412;2022-11-14T04:56:09;12.50;99.90
27795;DHT22;15176;50.844;4.412;2022-11-14T04:58:35;12.40;99.90
27795;DHT22;15176;50.844;4.412;2022-11-14T05:01:12;12.30;99.90
27795;DHT22;15176;50.844;4.412;2022-11-14T05:03:38;12.30;99.90
27795;DHT22;15176;50.844;4.412;2022-11-14T05:06:03;12.30;99.90
27795;DHT22;15176;50.844;4.412;2022-11-14T05:08:29;12.30;99.90
27795;DHT22;15176;50.844;4.412;2022-11-14T05:10:55;12.20;99.90
27795;DHT22;15176;50.844;4.412;2022-11-14T05:13:21;12.20;99.90
27795;DHT22;15176;50.844;4.412;2022-11-14T05:15:47;12.30;99.90
27795;DHT22;15176;50.844;4.412;2022-11-14T05:18:12;12.40;99.90
27795;DHT22;15176;50.844;4.412;2022-11-14T05:20:38;12.30;99.90
27795;DHT22;15176;50.844;4.412;2022-11-14T05:23:04;12.20;99.90
27795;DHT22;15176;50.844;4.412;2022-11-14T05:25:29;12.40;99.90
27795;DHT22;15176;50.844;4.412;2022-11-14T05:27:55;12.70;99.90
27795;DHT22;15176;50.844;4.412;2022-11-14T05:30:21;12.70;99.90
27795;DHT22;15176;50.844;4.412;2022-11-14T05:32:47;12.70;99.90
27795;DHT22;15176;50.844;4.412;2022-11-14T05:35:12;12.70;99.90
27795;DHT22;15176;50.844;4.412;2022-11-14T05:37:38;12.70;99.90
27795;DHT22;15176;50.844;4.412;2022-11-14T05:40:04;12.60;99.90
27795;DHT22;15176;50.844;4.412;2022-11-14T05:42:31;12.70;99.90
27795;DHT22;15176;50.844;4.412;2022-11-14T05:44:57;12.80;99.90
27795;DHT22;15176;50.844;4.412;2022-11-14T05:47:22;13.00;99.90
27795;DHT22;15176;50.844;4.412;2022-11-14T05:49:48;13.10;99.90
27795;DHT22;15176;50.844;4.412;2022-11-14T05:52:15;13.00;99.90
27795;DHT22;15176;50.844;4.412;2022-11-14T05:54:40;13.20;99.90
27795;DHT22;15176;50.844;4.412;2022-11-14T05:57:06;13.40;99.90
27795;DHT22;15176;50.844;4.412;2022-11-14T05:59:32;13.60;99.90
27795;DHT22;15176;50.844;4.412;2022-11-14T06:01:58;14.00;99.90
27795;DHT22;15176;50.844;4.412;2022-11-14T06:04:24;14.10;99.90
27795;DHT22;15176;50.844;4.412;2022-11-14T06:06:50;14.20;99.90
27795;DHT22;15176;50.844;4.412;2022-11-14T06:09:16;14.20;99.90
27795;DHT22;15176;50.844;4.412;2022-11-14T06:11:42;14.20;99.90
27795;DHT22;15176;50.844;4.412;2022-11-14T06:14:07;14.30;99.90
27795;DHT22;15176;50.844;4.412;2022-11-14T06:16:33;14.30;99.90
27795;DHT22;15176;50.844;4.412;2022-11-14T06:18:59;14.40;99.90
27795;DHT22;15176;50.844;4.412;2022-11-14T06:21:24;14.50;99.90
27795;DHT22;15176;50.844;4.412;2022-11-14T06:23:51;14.60;99.90
27795;DHT22;15176;50.844;4.412;2022-11-14T06:26:23;14.70;99.90
27795;DHT22;15176;50.844;4.412;2022-11-14T06:28:50;14.80;99.90
27795;DHT22;15176;50.844;4.412;2022-11-14T06:31:17;14.70;99.90
27795;DHT22;15176;50.844;4.412;2022-11-14T06:33:43;14.80;99.90
27795;DHT22;15176;50.844;4.412;2022-11-14T06:36:10;14.80;99.90
27795;DHT22;15176;50.844;4.412;2022-11-14T06:38:36;14.60;99.90
27795;DHT22;15176;50.844;4.412;2022-11-14T06:41:10;14.80;99.90
27795;DHT22;15176;50.844;4.412;2022-11-14T06:43:38;15.00;99.90
27795;DHT22;15176;50.844;4.412;2022-11-14T06:46:06;15.10;99.90
27795;DHT22;15176;50.844;4.412;2022-11-14T06:48:32;15.10;99.90
27795;DHT22;15176;50.844;4.412;2022-11-14T06:50:59;14.20;99.90
27795;DHT22;15176;50.844;4.412;2022-11-14T06:53:26;13.90;99.90
27795;DHT22;15176;50.844;4.412;2022-11-14T06:58:40;13.10;99.90
27795;DHT22;15176;50.844;4.412;2022-11-14T07:01:12;13.10;99.90
27795;DHT22;15176;50.844;4.412;2022-11-14T07:03:39;13.30;99.90
27795;DHT22;15176;50.844;4.412;2022-11-14T07:06:06;13.20;99.90
27795;DHT22;15176;50.844;4.412;2022-11-14T07:08:32;13.40;99.90
27795;DHT22;15176;50.844;4.412;2022-11-14T07:11:03;13.40;99.90
27795;DHT22;15176;50.844;4.412;2022-11-14T07:13:29;13.80;99.90
27795;DHT22;15176;50.844;4.412;2022-11-14T07:15:56;14.10;99.90
27795;DHT22;15176;50.844;4.412;2022-11-14T07:18:22;14.30;99.90
27795;DHT22;15176;50.844;4.412;2022-11-14T07:20:59;14.70;99.90
27795;DHT22;15176;50.844;4.412;2022-11-14T07:23:26;15.10;99.90
27795;DHT22;15176;50.844;4.412;2022-11-14T07:25:52;14.80;99.90
27795;DHT22;15176;50.844;4.412;2022-11-14T07:28:17;15.00;99.90
27795;DHT22;15176;50.844;4.412;2022-11-14T07:30:44;15.40;99.90
27795;DHT22;15176;50.844;4.412;2022-11-14T07:33:11;15.30;99.90
27795;DHT22;15176;50.844;4.412;2022-11-14T07:35:38;14.70;99.90
27795;DHT22;15176;50.844;4.412;2022-11-14T07:38:04;14.50;99.90
27795;DHT22;15176;50.844;4.412;2022-11-14T07:40:30;14.30;99.90
27795;DHT22;15176;50.844;4.412;2022-11-14T07:43:00;14.10;99.90
27795;DHT22;15176;50.844;4.412;2022-11-14T07:45:27;14.50;99.90
27795;DHT22;15176;50.844;4.412;2022-11-14T07:47:57;14.50;99.90
27795;DHT22;15176;50.844;4.412;2022-11-14T07:50:24;14.60;99.90
27795;DHT22;15176;50.844;4.412;2022-11-14T07:52:50;14.70;99.90
27795;DHT22;15176;50.844;4.412;2022-11-14T07:55:17;14.70;99.90
27795;DHT22;15176;50.844;4.412;2022-11-14T07:57:43;13.90;99.90
27795;DHT22;15176;50.844;4.412;2022-11-14T08:00:09;13.80;99.90
27795;DHT22;15176;50.844;4.412;2022-11-14T08:02:39;14.30;99.90
27795;DHT22;15176;50.844;4.412;2022-11-14T08:05:05;13.80;99.90
27795;DHT22;15176;50.844;4.412;2022-11-14T08:07:32;13.30;99.90
27795;DHT22;15176;50.844;4.412;2022-11-14T08:09:58;13.90;99.90
27795;DHT22;15176;50.844;4.412;2022-11-14T08:12:24;13.80;99.90
27795;DHT22;15176;50.844;4.412;2022-11-14T08:14:51;13.70;99.90
27795;DHT22;15176;50.844;4.412;2022-11-14T08:17:17;13.40;99.90
27795;DHT22;15176;50.844;4.412;2022-11-14T08:19:42;13.20;99.90
27795;DHT22;15176;50.844;4.412;2022-11-14T08:22:08;13.40;99.90
27795;DHT22;15176;50.844;4.412;2022-11-14T08:24:35;13.50;99.90
27795;DHT22;15176;50.844;4.412;2022-11-14T08:27:01;13.60;99.90
27795;DHT22;15176;50.844;4.412;2022-11-14T08:29:27;13.90;99.90
27795;DHT22;15176;50.844;4.412;2022-11-14T08:31:56;13.90;99.90
27795;DHT22;15176;50.844;4.412;2022-11-14T08:34:26;13.50;99.90
27795;DHT22;15176;50.844;4.412;2022-11-14T08:37:06;13.40;99.90
27795;DHT22;15176;50.844;4.412;2022-11-14T08:39:32;13.70;99.90
27795;DHT22;15176;50.844;4.412;2022-11-14T08:41:58;13.40;99.90
27795;DHT22;15176;50.844;4.412;2022-11-14T08:44:24;13.70;99.90
27795;DHT22;15176;50.844;4.412;2022-11-14T08:46:51;14.00;99.90
27795;DHT22;15176;50.844;4.412;2022-11-14T08:49:17;13.80;99.90
27795;DHT22;15176;50.844;4.412;2022-11-14T08:51:43;14.00;99.90
27795;DHT22;15176;50.844;4.412;2022-11-14T08:54:09;15.20;99.90
27795;DHT22;15176;50.844;4.412;2022-11-14T08:56:35;16.80;99.90
27795;DHT22;15176;50.844;4.412;2022-11-14T08:59:07;18.50;99.90
27795;DHT22;15176;50.844;4.412;2022-11-14T09:01:33;19.40;92.00
27795;DHT22;15176;50.844;4.412;2022-11-14T09:04:02;18.90;93.30
27795;DHT22;15176;50.844;4.412;2022-11-14T09:06:29;19.80;90.90
27795;DHT22;15176;50.844;4.412;2022-11-14T09:08:55;20.20;86.90
27795;DHT22;15176;50.844;4.412;2022-11-14T09:11:21;21.00;82.70
27795;DHT22;15176;50.844;4.412;2022-11-14T09:13:47;21.90;82.70
27795;DHT22;15176;50.844;4.412;2022-11-14T09:16:13;22.00;73.50
27795;DHT22;15176;50.844;4.412;2022-11-14T09:18:38;21.60;73.00
27795;DHT22;15176;50.844;4.412;2022-11-14T09:21:06;22.20;70.90
27795;DHT22;15176;50.844;4.412;2022-11-14T09:23:33;21.10;69.20
27795;DHT22;15176;50.844;4.412;2022-11-14T09:26:11;21.60;68.50
27795;DHT22;15176;50.844;4.412;2022-11-14T09:28:37;21.20;70.10
27795;DHT22;15176;50.844;4.412;2022-11-14T09:31:05;21.50;67.90
27795;DHT22;15176;50.844;4.412;2022-11-14T09:33:32;21.30;69.20
27795;DHT22;15176;50.844;4.412;2022-11-14T09:36:05;20.80;69.30
27795;DHT22;15176;50.844;4.412;2022-11-14T09:38:31;20.70;70.00
27795;DHT22;15176;50.844;4.412;2022-11-14T09:41:29;21.30;74.80
27795;DHT22;15176;50.844;4.412;2022-11-14T09:47:02;22.20;63.70
27795;DHT22;15176;50.844;4.412;2022-11-14T09:49:36;20.30;68.30
27795;DHT22;15176;50.844;4.412;2022-11-14T09:58:04;21.10;68.50
27795;DHT22;15176;50.844;4.412;2022-11-14T10:00:47;20.60;69.60
27795;DHT22;15176;50.844;4.412;2022-11-14T10:06:34;20.80;72.60
27795;DHT22;15176;50.844;4.412;2022-11-14T10:11:58;20.00;71.60
27795;DHT22;15176;50.844;4.412;2022-11-14T10:20:32;21.50;68.40
27795;DHT22;15176;50.844;4.412;2022-11-14T10:26:01;21.40;71.20
27795;DHT22;15176;50.844;4.412;2022-11-14T10:36:47;24.70;56.40
27795;DHT22;15176;50.844;4.412;2022-11-14T10:41:59;24.90;56.10
27795;DHT22;15176;50.844;4.412;2022-11-14T10:44:34;23.40;56.80
27795;DHT22;15176;50.844;4.412;2022-11-14T10:47:03;22.00;60.10
27795;DHT22;15176;50.844;4.412;2022-11-14T10:49:33;21.60;61.90
27795;DHT22;15176;50.844;4.412;2022-11-14T10:52:03;22.80;61.90
27795;DHT22;15176;50.844;4.412;2022-11-14T10:54:40;24.00;57.90
27795;DHT22;15176;50.844;4.412;2022-11-14T10:57:15;25.10;58.40
27795;DHT22;15176;50.844;4.412;2022-11-14T10:59:41;24.70;55.00
27795;DHT22;15176;50.844;4.412;2022-11-14T11:02:14;24.30;55.00
27795;DHT22;15176;50.844;4.412;2022-11-14T11:04:41;23.90;56.30
27795;DHT22;15176;50.844;4.412;2022-11-14T11:09:38;21.70;62.10
27795;DHT22;15176;50.844;4.412;2022-11-14T11:12:47;22.40;62.30
27795;DHT22;15176;50.844;4.412;2022-11-14T11:15:21;21.90;62.20
27795;DHT22;15176;50.844;4.412;2022-11-14T11:17:57;20.60;64.60
27795;DHT22;15176;50.844;4.412;2022-11-14T11:20:42;19.60;67.00
27795;DHT22;15176;50.844;4.412;2022-11-14T11:25:38;20.80;66.10
27795;DHT22;15176;50.844;4.412;2022-11-14T11:30:38;21.50;62.00
27795;DHT22;15176;50.844;4.412;2022-11-14T11:33:16;20.30;64.50
27795;DHT22;15176;50.844;4.412;2022-11-14T11:35:54;20.60;67.20
27795;DHT22;15176;50.844;4.412;2022-11-14T11:38:21;21.40;61.80
27795;DHT22;15176;50.844;4.412;2022-11-14T11:40:50;20.20;64.20
27795;DHT22;15176;50.844;4.412;2022-11-14T11:46:02;19.60;73.20
27795;DHT22;15176;50.844;4.412;2022-11-14T11:48:39;19.10;69.20
27795;DHT22;15176;50.844;4.412;2022-11-14T11:51:09;18.90;70.60
27795;DHT22;15176;50.844;4.412;2022-11-14T11:53:55;18.40;71.90
27795;DHT22;15176;50.844;4.412;2022-11-14T11:56:28;18.30;74.10
27795;DHT22;15176;50.844;4.412;2022-11-14T11:59:16;17.20;75.90
27795;DHT22;15176;50.844;4.412;2022-11-14T12:02:07;17.60;78.00
27795;DHT22;15176;50.844;4.412;2022-11-14T12:04:40;18.50;75.20
27795;DHT22;15176;50.844;4.412;2022-11-14T12:07:13;17.90;75.30
27795;DHT22;15176;50.844;4.412;2022-11-14T12:09:41;16.70;79.70
27795;DHT22;15176;50.844;4.412;2022-11-14T12:15:37;16.60;83.30
27795;DHT22;15176;50.844;4.412;2022-11-14T12:18:19;16.90;80.50
27795;DHT22;15176;50.844;4.412;2022-11-14T12:30:11;16.50;89.80
27795;DHT22;15176;50.844;4.412;2022-11-14T12:32:52;17.10;85.60
27795;DHT22;15176;50.844;4.412;2022-11-14T12:35:20;16.70;83.90
27795;DHT22;15176;50.844;4.412;2022-11-14T12:37:49;15.00;90.90
27795;DHT22;15176;50.844;4.412;2022-11-14T12:42:57;14.40;94.10
27795;DHT22;15176;50.844;4.412;2022-11-14T12:48:29;14.70;95.50
27795;DHT22;15176;50.844;4.412;2022-11-14T12:50:57;15.50;94.50
27795;DHT22;15176;50.844;4.412;2022-11-14T13:12:30;14.70;99.50
27795;DHT22;15176;50.844;4.412;2022-11-14T13:15:23;13.60;99.90
27795;DHT22;15176;50.844;4.412;2022-11-14T13:18:22;14.00;99.90
27795;DHT22;15176;50.844;4.412;2022-11-14T13:21:21;14.00;99.90
27795;DHT22;15176;50.844;4.412;2022-11-14T13:24:08;13.40;99.90
27795;DHT22;15176;50.844;4.412;2022-11-14T13:26:39;12.80;99.90
27795;DHT22;15176;50.844;4.412;2022-11-14T13:29:05;12.60;99.90
27795;DHT22;15176;50.844;4.412;2022-11-14T13:31:45;12.80;99.90
27795;DHT22;15176;50.844;4.412;2022-11-14T13:39:58;13.10;99.90
27795;DHT22;15176;50.844;4.412;2022-11-14T13:51:17;13.00;99.90
27795;DHT22;15176;50.844;4.412;2022-11-14T13:53:44;13.70;99.90
27795;DHT22;15176;50.844;4.412;2022-11-14T13:56:34;14.40;99.90
27795;DHT22;15176;50.844;4.412;2022-11-14T14:10:28;14.40;99.90
27795;DHT22;15176;50.844;4.412;2022-11-14T14:13:20;13.60;99.90
27795;DHT22;15176;50.844;4.412;2022-11-14T14:16:17;13.40;99.90
27795;DHT22;15176;50.844;4.412;2022-11-14T14:19:22;13.10;99.90
27795;DHT22;15176;50.844;4.412;2022-11-14T14:25:40;14.10;99.90
27795;DHT22;15176;50.844;4.412;2022-11-14T14:31:11;12.30;99.90
27795;DHT22;15176;50.844;4.412;2022-11-14T14:33:45;12.80;99.90
27795;DHT22;15176;50.844;4.412;2022-11-14T14:36:26;12.60;99.90
27795;DHT22;15176;50.844;4.412;2022-11-14T14:39:14;12.50;99.90
27795;DHT22;15176;50.844;4.412;2022-11-14T14:41:40;12.70;99.90
27795;DHT22;15176;50.844;4.412;2022-11-14T14:46:42;13.10;99.90
27795;DHT22;15176;50.844;4.412;2022-11-14T14:49:19;13.50;99.90
27795;DHT22;15176;50.844;4.412;2022-11-14T14:51:49;13.40;99.90
27795;DHT22;15176;50.844;4.412;2022-11-14T14:54:23;12.70;99.90
27795;DHT22;15176;50.844;4.412;2022-11-14T14:56:56;13.00;99.90
27795;DHT22;15176;50.844;4.412;2022-11-14T14:59:26;13.10;99.90
27795;DHT22;15176;50.844;4.412;2022-11-14T15:02:07;13.90;99.90
27795;DHT22;15176;50.844;4.412;2022-11-14T15:05:05;13.00;99.90
27795;DHT22;15176;50.844;4.412;2022-11-14T15:07:37;13.00;99.90
27795;DHT22;15176;50.844;4.412;2022-11-14T15:10:05;13.10;99.90
27795;DHT22;15176;50.844;4.412;2022-11-14T15:12:34;12.90;99.90
27795;DHT22;15176;50.844;4.412;2022-11-14T15:15:05;13.30;99.90
27795;DHT22;15176;50.844;4.412;2022-11-14T15:17:34;13.60;99.90
27795;DHT22;15176;50.844;4.412;2022-11-14T15:20:00;14.50;99.90
27795;DHT22;15176;50.844;4.412;2022-11-14T15:22:27;14.50;99.90
27795;DHT22;15176;50.844;4.412;2022-11-14T15:25:22;14.00;99.90
27795;DHT22;15176;50.844;4.412;2022-11-14T15:27:53;13.70;99.90
27795;DHT22;15176;50.844;4.412;2022-11-14T15:30:30;13.70;99.90
27795;DHT22;15176;50.844;4.412;2022-11-14T15:33:23;13.60;99.90
27795;DHT22;15176;50.844;4.412;2022-11-14T15:36:07;13.80;99.90
27795;DHT22;15176;50.844;4.412;2022-11-14T15:38:33;14.20;99.90
27795;DHT22;15176;50.844;4.412;2022-11-14T15:41:17;14.90;99.90
27795;DHT22;15176;50.844;4.412;2022-11-14T15:46:41;13.30;99.90
27795;DHT22;15176;50.844;4.412;2022-11-14T15:51:47;12.00;99.90
27795;DHT22;15176;50.844;4.412;2022-11-14T15:54:25;12.20;99.90
27795;DHT22;15176;50.844;4.412;2022-11-14T15:56:52;12.20;99.90
27795;DHT22;15176;50.844;4.412;2022-11-14T15:59:18;12.20;99.90
27795;DHT22;15176;50.844;4.412;2022-11-14T16:01:46;12.30;99.90
27795;DHT22;15176;50.844;4.412;2022-11-14T16:04:21;11.80;99.90
27795;DHT22;15176;50.844;4.412;2022-11-14T16:06:47;11.70;99.90
27795;DHT22;15176;50.844;4.412;2022-11-14T16:09:15;12.20;99.90
27795;DHT22;15176;50.844;4.412;2022-11-14T16:11:45;13.20;99.90
27795;DHT22;15176;50.844;4.412;2022-11-14T16:14:23;13.30;99.90
27795;DHT22;15176;50.844;4.412;2022-11-14T16:16:49;13.60;99.90
27795;DHT22;15176;50.844;4.412;2022-11-14T16:19:15;13.10;99.90
27795;DHT22;15176;50.844;4.412;2022-11-14T16:21:41;12.50;99.90
27795;DHT22;15176;50.844;4.412;2022-11-14T16:24:21;12.30;99.90
27795;DHT22;15176;50.844;4.412;2022-11-14T16:26:48;12.10;99.90
27795;DHT22;15176;50.844;4.412;2022-11-14T16:29:14;12.50;99.90
27795;DHT22;15176;50.844;4.412;2022-11-14T16:31:42;11.80;99.90
27795;DHT22;15176;50.844;4.412;2022-11-14T16:34:25;12.20;99.90
27795;DHT22;15176;50.844;4.412;2022-11-14T16:37:08;12.90;99.90
27795;DHT22;15176;50.844;4.412;2022-11-14T16:39:39;13.40;99.90
27795;DHT22;15176;50.844;4.412;2022-11-14T16:42:04;14.20;99.90
27795;DHT22;15176;50.844;4.412;2022-11-14T16:44:45;14.30;99.90
27795;DHT22;15176;50.844;4.412;2022-11-14T16:47:17;14.10;99.90
27795;DHT22;15176;50.844;4.412;2022-11-14T16:49:43;13.90;99.90
27795;DHT22;15176;50.844;4.412;2022-11-14T16:52:09;14.10;99.90
27795;DHT22;15176;50.844;4.412;2022-11-14T16:54:35;14.90;99.90
27795;DHT22;15176;50.844;4.412;2022-11-14T16:57:04;14.50;99.90
27795;DHT22;15176;50.844;4.412;2022-11-14T16:59:52;14.30;99.90
27795;DHT22;15176;50.844;4.412;2022-11-14T17:02:23;14.50;99.90
27795;DHT22;15176;50.844;4.412;2022-11-14T17:04:49;14.40;99.90
27795;DHT22;15176;50.844;4.412;2022-11-14T17:07:20;14.60;99.90
27795;DHT22;15176;50.844;4.412;2022-11-14T17:09:49;14.00;99.90
27795;DHT22;15176;50.844;4.412;2022-11-14T17:12:18;13.50;99.90
27795;DHT22;15176;50.844;4.412;2022-11-14T17:14:44;13.30;99.90
27795;DHT22;15176;50.844;4.412;2022-11-14T17:17:10;13.20;99.90
27795;DHT22;15176;50.844;4.412;2022-11-14T17:19:36;13.70;99.90
27795;DHT22;15176;50.844;4.412;2022-11-14T17:22:06;13.80;99.90
27795;DHT22;15176;50.844;4.412;2022-11-14T17:24:38;13.50;99.90
27795;DHT22;15176;50.844;4.412;2022-11-14T17:27:08;14.20;99.90
27795;DHT22;15176;50.844;4.412;2022-11-14T17:29:35;14.70;99.90
27795;DHT22;15176;50.844;4.412;2022-11-14T17:32:02;15.20;99.90
27795;DHT22;15176;50.844;4.412;2022-11-14T17:34:28;15.50;99.90
27795;DHT22;15176;50.844;4.412;2022-11-14T17:36:54;14.20;99.90
27795;DHT22;15176;50.844;4.412;2022-11-14T17:39:20;14.60;99.90
27795;DHT22;15176;50.844;4.412;2022-11-14T17:41:47;14.60;99.90
27795;DHT22;15176;50.844;4.412;2022-11-14T17:44:14;14.30;99.90
27795;DHT22;15176;50.844;4.412;2022-11-14T17:46:40;14.40;99.90
27795;DHT22;15176;50.844;4.412;2022-11-14T17:49:06;14.30;99.90
27795;DHT22;15176;50.844;4.412;2022-11-14T17:51:32;14.10;99.90
27795;DHT22;15176;50.844;4.412;2022-11-14T17:53:57;15.00;99.90